sensor_id;sensor_type;location;lat;lon;timestamp;pressure;altitude;pressure_sealevel;temperature;humidity
5500;BME280;2772;42.700;23.304;2022-12-18T00:02:01;95839.06;;;8.05;100.00
5500;BME280;2772;42.700;23.304;2022-12-18T00:04:29;95842.56;;;7.96;100.00
5500;BME280;2772;42.700;23.304;2022-12-18T00:06:56;95849.16;;;8.03;100.00
5500;BME280;2772;42.700;23.304;2022-12-18T00:09:23;95851.53;;;8.05;100.00
5500;BME280;2772;42.700;23.304;2022-12-18T00:11:51;95851.34;;;7.86;100.00
5500;BME280;2772;42.700;23.304;2022-12-18T00:14:19;95842.00;;;7.99;100.00
5500;BME280;2772;42.700;23.304;2022-12-18T00:16:46;95858.75;;;7.84;100.00
5500;BME280;2772;42.700;23.304;2022-12-18T00:19:14;95849.50;;;7.77;100.00
5500;BME280;2772;42.700;23.304;2022-12-18T00:21:42;95850.31;;;7.77;100.00
5500;BME280;2772;42.700;23.304;2022-12-18T00:24:10;95858.00;;;7.69;100.00
5500;BME280;2772;42.700;23.304;2022-12-18T00:26:38;95866.78;;;7.64;100.00
5500;BME280;2772;42.700;23.304;2022-12-18T00:29:10;95862.00;;;7.61;100.00
5500;BME280;2772;42.700;23.304;2022-12-18T00:31:39;95866.78;;;7.54;100.00
5500;BME280;2772;42.700;23.304;2022-12-18T00:34:06;95868.38;;;7.55;100.00
5500;BME280;2772;42.700;23.304;2022-12-18T00:36:35;95880.03;;;7.59;100.00
5500;BME280;2772;42.700;23.304;2022-12-18T00:39:04;95872.34;;;7.53;100.00
5500;BME280;2772;42.700;23.304;2022-12-18T00:41:31;95872.63;;;7.51;100.00
5500;BME280;2772;42.700;23.304;2022-12-18T00:44:18;95873.38;;;7.62;100.00
5500;BME280;2772;42.700;23.304;2022-12-18T00:46:46;95876.84;;;7.57;100.00
5500;BME280;2772;42.700;23.304;2022-12-18T00:49:14;95885.09;;;7.46;100.00
5500;BME280;2772;42.700;23.304;2022-12-18T00:51:41;95893.81;;;7.51;100.00
5500;BME280;2772;42.700;23.304;2022-12-18T00:54:07;95889.00;;;7.68;100.00
5500;BME280;2772;42.700;23.304;2022-12-18T00:56:37;95889.84;;;7.54;100.00
5500;BME280;2772;42.700;23.304;2022-12-18T00:59:04;95903.63;;;7.36;100.00
5500;BME280;2772;42.700;23.304;2022-12-18T01:01:32;95905.25;;;7.37;100.00
5500;BME280;2772;42.700;23.304;2022-12-18T01:04:00;95907.09;;;7.31;100.00
5500;BME280;2772;42.700;23.304;2022-12-18T01:06:26;95910.00;;;7.15;100.00
5500;BME280;2772;42.700;23.304;2022-12-18T01:08:53;95906.84;;;7.18;100.00
5500;BME280;2772;42.700;23.304;2022-12-18T01:11:21;95900.47;;;7.14;100.00
5500;BME280;2772;42.700;23.304;2022-12-18T01:13:48;95915.31;;;7.15;100.00
5500;BME280;2772;42.700;23.304;2022-12-18T01:16:16;95918.72;;;7.15;100.00
5500;BME280;2772;42.700;23.304;2022-12-18T01:18:44;95922.97;;;7.06;100.00
5500;BME280;2772;42.700;23.304;2022-12-18T01:21:13;95919.28;;;7.02;100.00
5500;BME280;2772;42.700;23.304;2022-12-18T01:23:40;95925.59;;;7.01;100.00
5500;BME280;2772;42.700;23.304;2022-12-18T01:26:07;95925.34;;;7.08;100.00
5500;BME280;2772;42.700;23.304;2022-12-18T01:28:35;95914.50;;;7.14;100.00
5500;BME280;2772;42.700;23.304;2022-12-18T01:31:17;95916.88;;;6.91;100.00
5500;BME280;2772;42.700;23.304;2022-12-18T01:33:45;95936.72;;;6.83;100.00
5500;BME280;2772;42.700;23.304;2022-12-18T01:36:17;95924.25;;;6.79;100.00
5500;BME280;2772;42.700;23.304;2022-12-18T01:38:45;95924.78;;;6.76;100.00
5500;BME280;2772;42.700;23.304;2022-12-18T01:41:12;95917.09;;;6.79;100.00
5500;BME280;2772;42.700;23.304;2022-12-18T01:43:44;95939.31;;;6.73;100.00
5500;BME280;2772;42.700;23.304;2022-12-18T01:46:11;95929.25;;;6.60;100.00
5500;BME280;2772;42.700;23.304;2022-12-18T01:48:39;95934.31;;;6.67;100.00
5500;BME280;2772;42.700;23.304;2022-12-18T01:51:10;95935.84;;;6.58;100.00
5500;BME280;2772;42.700;23.304;2022-12-18T01:53:39;95944.09;;;6.66;100.00
5500;BME280;2772;42.700;23.304;2022-12-18T01:56:07;95946.50;;;6.73;100.00
5500;BME280;2772;42.700;23.304;2022-12-18T01:58:41;95941.97;;;6.73;100.00
5500;BME280;2772;42.700;23.304;2022-12-18T02:01:10;95950.97;;;6.67;100.00
5500;BME280;2772;42.700;23.304;2022-12-18T02:03:37;95953.06;;;6.65;100.00
5500;BME280;2772;42.700;23.304;2022-12-18T02:06:12;95947.22;;;6.58;100.00
5500;BME280;2772;42.700;23.304;2022-12-18T02:08:47;95947.28;;;6.68;100.00
5500;BME280;2772;42.700;23.304;2022-12-18T02:11:20;95954.69;;;6.76;100.00
5500;BME280;2772;42.700;23.304;2022-12-18T02:13:53;95954.69;;;6.76;100.00
5500;BME280;2772;42.700;23.304;2022-12-18T02:16:26;95945.66;;;6.57;100.00
5500;BME280;2772;42.700;23.304;2022-12-18T02:18:58;95967.59;;;6.58;100.00
5500;BME280;2772;42.700;23.304;2022-12-18T02:21:36;95963.38;;;6.57;100.00
5500;BME280;2772;42.700;23.304;2022-12-18T02:24:18;95977.66;;;6.56;100.00
5500;BME280;2772;42.700;23.304;2022-12-18T02:26:54;95976.06;;;6.55;100.00
5500;BME280;2772;42.700;23.304;2022-12-18T02:29:24;95967.28;;;6.44;100.00
5500;BME280;2772;42.700;23.304;2022-12-18T02:31:54;95979.47;;;6.50;100.00
5500;BME280;2772;42.700;23.304;2022-12-18T02:34:28;95981.59;;;6.43;100.00
5500;BME280;2772;42.700;23.304;2022-12-18T02:36:57;95974.72;;;6.52;100.00
5500;BME280;2772;42.700;23.304;2022-12-18T02:39:26;95976.84;;;6.50;100.00
5500;BME280;2772;42.700;23.304;2022-12-18T02:41:57;95979.50;;;6.55;100.00
5500;BME280;2772;42.700;23.304;2022-12-18T02:44:25;95979.97;;;6.42;100.00
5500;BME280;2772;42.700;23.304;2022-12-18T02:46:52;95989.50;;;6.38;100.00
5500;BME280;2772;42.700;23.304;2022-12-18T02:49:26;95991.06;;;6.39;100.00
5500;BME280;2772;42.700;23.304;2022-12-18T02:52:05;95984.28;;;6.58;100.00
5500;BME280;2772;42.700;23.304;2022-12-18T02:54:43;95989.28;;;6.55;100.00
5500;BME280;2772;42.700;23.304;2022-12-18T02:57:20;95991.31;;;6.37;100.00
5500;BME280;2772;42.700;23.304;2022-12-18T02:59:56;95984.66;;;6.25;100.00
5500;BME280;2772;42.700;23.304;2022-12-18T03:02:28;95978.91;;;6.38;100.00
5500;BME280;2772;42.700;23.304;2022-12-18T03:05:00;95983.16;;;6.44;100.00
5500;BME280;2772;42.700;23.304;2022-12-18T03:07:36;95979.13;;;6.31;100.00
5500;BME280;2772;42.700;23.304;2022-12-18T03:10:06;95981.25;;;6.34;100.00
5500;BME280;2772;42.700;23.304;2022-12-18T03:12:38;95980.88;;;6.11;100.00
5500;BME280;2772;42.700;23.304;2022-12-18T03:15:09;95976.06;;;6.03;100.00
5500;BME280;2772;42.700;23.304;2022-12-18T03:17:40;95994.06;;;6.01;100.00
5500;BME280;2772;42.700;23.304;2022-12-18T03:20:12;95990.91;;;6.04;100.00
5500;BME280;2772;42.700;23.304;2022-12-18T03:22:43;96004.88;;;5.99;100.00
5500;BME280;2772;42.700;23.304;2022-12-18T03:25:13;96004.38;;;6.02;100.00
5500;BME280;2772;42.700;23.304;2022-12-18T03:27:44;96009.03;;;5.90;100.00
5500;BME280;2772;42.700;23.304;2022-12-18T03:30:14;96004.34;;;5.97;100.00
5500;BME280;2772;42.700;23.304;2022-12-18T03:32:44;96019.47;;;6.07;100.00
5500;BME280;2772;42.700;23.304;2022-12-18T03:35:18;96018.38;;;5.98;100.00
5500;BME280;2772;42.700;23.304;2022-12-18T03:37:47;96009.88;;;5.96;100.00
5500;BME280;2772;42.700;23.304;2022-12-18T03:40:13;96028.09;;;5.92;100.00
5500;BME280;2772;42.700;23.304;2022-12-18T03:42:46;96032.94;;;6.05;100.00
5500;BME280;2772;42.700;23.304;2022-12-18T03:45:20;96029.75;;;6.03;100.00
5500;BME280;2772;42.700;23.304;2022-12-18T03:47:58;96053.28;;;6.05;100.00
5500;BME280;2772;42.700;23.304;2022-12-18T03:50:37;96054.63;;;6.07;100.00
5500;BME280;2772;42.700;23.304;2022-12-18T03:53:17;96059.59;;;5.99;100.00
5500;BME280;2772;42.700;23.304;2022-12-18T03:55:45;96060.97;;;6.06;100.00
5500;BME280;2772;42.700;23.304;2022-12-18T03:58:17;96062.28;;;6.09;100.00
5500;BME280;2772;42.700;23.304;2022-12-18T04:00:45;96069.97;;;6.05;100.00
5500;BME280;2772;42.700;23.304;2022-12-18T04:03:15;96065.97;;;6.03;100.00
5500;BME280;2772;42.700;23.304;2022-12-18T04:05:43;96065.13;;;5.97;100.00
5500;BME280;2772;42.700;23.304;2022-12-18T04:08:10;96058.28;;;6.01;100.00
5500;BME280;2772;42.700;23.304;2022-12-18T04:10:37;96066.50;;;6.05;100.00
5500;BME280;2772;42.700;23.304;2022-12-18T04:13:08;96063.72;;;5.85;100.00
5500;BME280;2772;42.700;23.304;2022-12-18T04:15:37;96070.09;;;5.89;100.00
5500;BME280;2772;42.700;23.304;2022-12-18T04:18:04;96070.16;;;5.99;100.00
5500;BME280;2772;42.700;23.304;2022-12-18T04:20:31;96082.78;;;5.92;100.00
5500;BME280;2772;42.700;23.304;2022-12-18T04:22:58;96081.22;;;5.91;100.00
5500;BME280;2772;42.700;23.304;2022-12-18T04:25:24;96089.94;;;5.91;100.00
5500;BME280;2772;42.700;23.304;2022-12-18T04:27:51;96100.38;;;5.81;100.00
5500;BME280;2772;42.700;23.304;2022-12-18T04:30:19;96100.22;;;5.88;100.00
5500;BME280;2772;42.700;23.304;2022-12-18T04:32:47;96108.09;;;5.83;100.00
5500;BME280;2772;42.700;23.304;2022-12-18T04:35:14;96120.81;;;5.86;100.00
5500;BME280;2772;42.700;23.304;2022-12-18T04:37:40;96115.16;;;5.77;100.00
5500;BME280;2772;42.700;23.304;2022-12-18T04:40:08;96131.88;;;5.83;100.00
5500;BME280;2772;42.700;23.304;2022-12-18T04:42:35;96121.94;;;5.68;100.00
5500;BME280;2772;42.700;23.304;2022-12-18T04:45:01;96131.78;;;5.73;100.00
5500;BME280;2772;42.700;23.304;2022-12-18T04:47:28;96128.38;;;5.77;100.00
5500;BME280;2772;42.700;23.304;2022-12-18T04:49:56;96131.88;;;5.56;100.00
5500;BME280;2772;42.700;23.304;2022-12-18T04:52:23;96132.50;;;5.68;100.00
5500;BME280;2772;42.700;23.304;2022-12-18T04:54:50;96140.59;;;5.57;100.00
5500;BME280;2772;42.700;23.304;2022-12-18T04:57:17;96154.13;;;5.65;100.00
5500;BME280;2772;42.700;23.304;2022-12-18T04:59:44;96152.69;;;5.53;100.00
5500;BME280;2772;42.700;23.304;2022-12-18T05:02:11;96153.25;;;5.55;100.00
5500;BME280;2772;42.700;23.304;2022-12-18T05:04:38;96162.31;;;5.64;100.00
5500;BME280;2772;42.700;23.304;2022-12-18T05:07:06;96154.31;;;5.54;100.00
5500;BME280;2772;42.700;23.304;2022-12-18T05:09:33;96167.94;;;5.46;100.00
5500;BME280;2772;42.700;23.304;2022-12-18T05:12:00;96166.56;;;5.38;100.00
5500;BME280;2772;42.700;23.304;2022-12-18T05:14:26;96174.22;;;5.40;100.00
5500;BME280;2772;42.700;23.304;2022-12-18T05:16:54;96172.06;;;5.37;100.00
5500;BME280;2772;42.700;23.304;2022-12-18T05:19:21;96172.50;;;5.29;100.00
5500;BME280;2772;42.700;23.304;2022-12-18T05:21:48;96178.44;;;5.41;100.00
5500;BME280;2772;42.700;23.304;2022-12-18T05:24:16;96184.53;;;5.41;100.00
5500;BME280;2772;42.700;23.304;2022-12-18T05:26:42;96180.44;;;5.29;100.00
5500;BME280;2772;42.700;23.304;2022-12-18T05:29:09;96191.09;;;5.39;100.00
5500;BME280;2772;42.700;23.304;2022-12-18T05:31:37;96197.13;;;5.34;100.00
5500;BME280;2772;42.700;23.304;2022-12-18T05:34:04;96205.03;;;5.34;100.00
5500;BME280;2772;42.700;23.304;2022-12-18T05:36:31;96191.84;;;5.34;100.00
5500;BME280;2772;42.700;23.304;2022-12-18T05:38:57;96206.59;;;5.30;100.00
5500;BME280;2772;42.700;23.304;2022-12-18T05:41:26;96216.09;;;5.31;100.00
5500;BME280;2772;42.700;23.304;2022-12-18T05:43:54;96212.72;;;5.36;100.00
5500;BME280;2772;42.700;23.304;2022-12-18T05:46:21;96222.75;;;5.34;100.00
5500;BME280;2772;42.700;23.304;2022-12-18T05:48:47;96226.06;;;5.24;100.00
5500;BME280;2772;42.700;23.304;2022-12-18T05:51:17;96219.66;;;5.20;100.00
5500;BME280;2772;42.700;23.304;2022-12-18T05:53:45;96221.19;;;5.16;100.00
5500;BME280;2772;42.700;23.304;2022-12-18T05:56:14;96227.78;;;5.14;100.00
5500;BME280;2772;42.700;23.304;2022-12-18T05:58:43;96225.97;;;4.98;100.00
5500;BME280;2772;42.700;23.304;2022-12-18T06:01:11;96230.09;;;5.10;100.00
5500;BME280;2772;42.700;23.304;2022-12-18T06:03:38;96243.28;;;5.10;100.00
5500;BME280;2772;42.700;23.304;2022-12-18T06:06:13;96250.97;;;5.12;100.00
5500;BME280;2772;42.700;23.304;2022-12-18T06:08:40;96253.38;;;5.13;100.00
5500;BME280;2772;42.700;23.304;2022-12-18T06:11:06;96249.13;;;5.12;100.00
5500;BME280;2772;42.700;23.304;2022-12-18T06:13:33;96240.53;;;5.22;100.00
5500;BME280;2772;42.700;23.304;2022-12-18T06:16:03;96242.44;;;5.26;100.00
5500;BME280;2772;42.700;23.304;2022-12-18T06:18:30;96251.59;;;5.19;100.00
5500;BME280;2772;42.700;23.304;2022-12-18T06:20:58;96246.13;;;5.25;100.00
5500;BME280;2772;42.700;23.304;2022-12-18T06:23:25;96249.56;;;5.26;100.00
5500;BME280;2772;42.700;23.304;2022-12-18T06:25:52;96252.22;;;5.26;100.00
5500;BME280;2772;42.700;23.304;2022-12-18T06:28:19;96248.03;;;5.30;100.00
5500;BME280;2772;42.700;23.304;2022-12-18T06:30:47;96256.34;;;5.38;100.00
5500;BME280;2772;42.700;23.304;2022-12-18T06:33:16;96260.88;;;5.43;100.00
5500;BME280;2772;42.700;23.304;2022-12-18T06:35:43;96265.03;;;5.39;100.00
5500;BME280;2772;42.700;23.304;2022-12-18T06:38:09;96265.53;;;5.36;100.00
5500;BME280;2772;42.700;23.304;2022-12-18T06:40:37;96272.94;;;5.34;100.00
5500;BME280;2772;42.700;23.304;2022-12-18T06:43:03;96278.41;;;5.11;100.00
5500;BME280;2772;42.700;23.304;2022-12-18T06:45:30;96280.47;;;5.25;100.00
5500;BME280;2772;42.700;23.304;2022-12-18T06:47:59;96292.16;;;5.29;100.00
5500;BME280;2772;42.700;23.304;2022-12-18T06:50:27;96286.06;;;5.29;100.00
5500;BME280;2772;42.700;23.304;2022-12-18T06:52:54;96293.97;;;5.29;100.00
5500;BME280;2772;42.700;23.304;2022-12-18T06:55:21;96301.25;;;5.22;100.00
5500;BME280;2772;42.700;23.304;2022-12-18T06:57:47;96301.38;;;5.10;100.00
5500;BME280;2772;42.700;23.304;2022-12-18T07:00:14;96300.66;;;5.15;100.00
5500;BME280;2772;42.700;23.304;2022-12-18T07:02:41;96305.75;;;5.05;100.00
5500;BME280;2772;42.700;23.304;2022-12-18T07:05:08;96305.13;;;5.14;100.00
5500;BME280;2772;42.700;23.304;2022-12-18T07:07:37;96308.47;;;5.10;100.00
5500;BME280;2772;42.700;23.304;2022-12-18T07:10:04;96303.59;;;5.18;100.00
5500;BME280;2772;42.700;23.304;2022-12-18T07:12:31;96314.41;;;5.00;100.00
5500;BME280;2772;42.700;23.304;2022-12-18T07:14:57;96317.28;;;5.15;100.00
5500;BME280;2772;42.700;23.304;2022-12-18T07:17:24;96309.00;;;5.28;100.00
5500;BME280;2772;42.700;23.304;2022-12-18T07:19:51;96317.19;;;5.27;100.00
5500;BME280;2772;42.700;23.304;2022-12-18T07:22:18;96314.69;;;5.20;100.00
5500;BME280;2772;42.700;23.304;2022-12-18T07:24:46;96316.81;;;5.18;100.00
5500;BME280;2772;42.700;23.304;2022-12-18T07:27:12;96312.38;;;5.24;100.00
5500;BME280;2772;42.700;23.304;2022-12-18T07:29:39;96326.00;;;5.16;100.00
5500;BME280;2772;42.700;23.304;2022-12-18T07:32:06;96325.25;;;5.20;100.00
5500;BME280;2772;42.700;23.304;2022-12-18T07:34:33;96320.72;;;5.16;100.00
5500;BME280;2772;42.700;23.304;2022-12-18T07:37:00;96328.47;;;5.22;100.00
5500;BME280;2772;42.700;23.304;2022-12-18T07:39:27;96330.53;;;5.20;100.00
5500;BME280;2772;42.700;23.304;2022-12-18T07:41:55;96338.66;;;5.14;100.00
5500;BME280;2772;42.700;23.304;2022-12-18T07:44:39;96330.97;;;4.96;100.00
5500;BME280;2772;42.700;23.304;2022-12-18T07:47:08;96337.34;;;5.00;100.00
5500;BME280;2772;42.700;23.304;2022-12-18T07:49:35;96336.97;;;5.08;100.00
5500;BME280;2772;42.700;23.304;2022-12-18T07:52:02;96336.19;;;5.07;100.00
5500;BME280;2772;42.700;23.304;2022-12-18T07:54:28;96340.97;;;4.93;100.00
5500;BME280;2772;42.700;23.304;2022-12-18T07:56:56;96345.06;;;5.01;100.00
5500;BME280;2772;42.700;23.304;2022-12-18T07:59:23;96351.78;;;5.09;100.00
5500;BME280;2772;42.700;23.304;2022-12-18T08:01:50;96355.94;;;5.21;100.00
5500;BME280;2772;42.700;23.304;2022-12-18T08:04:17;96351.38;;;5.17;100.00
5500;BME280;2772;42.700;23.304;2022-12-18T08:06:43;96360.97;;;5.06;100.00
5500;BME280;2772;42.700;23.304;2022-12-18T08:09:10;96362.19;;;5.15;100.00
5500;BME280;2772;42.700;23.304;2022-12-18T08:11:37;96363.06;;;5.04;100.00
5500;BME280;2772;42.700;23.304;2022-12-18T08:14:05;96365.44;;;5.22;100.00
5500;BME280;2772;42.700;23.304;2022-12-18T08:16:32;96361.44;;;5.20;100.00
5500;BME280;2772;42.700;23.304;2022-12-18T08:18:58;96372.63;;;5.27;100.00
5500;BME280;2772;42.700;23.304;2022-12-18T08:21:29;96372.41;;;5.12;100.00
5500;BME280;2772;42.700;23.304;2022-12-18T08:23:57;96379.53;;;5.11;100.00
5500;BME280;2772;42.700;23.304;2022-12-18T08:26:30;96388.34;;;5.17;100.00
5500;BME280;2772;42.700;23.304;2022-12-18T08:28:58;96392.25;;;5.14;100.00
5500;BME280;2772;42.700;23.304;2022-12-18T08:31:28;96371.91;;;6.07;100.00
5500;BME280;2772;42.700;23.304;2022-12-18T08:33:55;96382.03;;;6.37;100.00
5500;BME280;2772;42.700;23.304;2022-12-18T08:36:22;96375.78;;;6.43;100.00
5500;BME280;2772;42.700;23.304;2022-12-18T08:38:50;96388.81;;;6.28;100.00
5500;BME280;2772;42.700;23.304;2022-12-18T08:41:17;96401.25;;;6.27;100.00
5500;BME280;2772;42.700;23.304;2022-12-18T08:43:44;96399.28;;;5.80;100.00
5500;BME280;2772;42.700;23.304;2022-12-18T08:46:34;96408.75;;;5.76;100.00
5500;BME280;2772;42.700;23.304;2022-12-18T08:49:02;96398.69;;;5.73;100.00
5500;BME280;2772;42.700;23.304;2022-12-18T08:51:29;96409.84;;;5.42;100.00
5500;BME280;2772;42.700;23.304;2022-12-18T08:53:56;96428.50;;;5.35;100.00
5500;BME280;2772;42.700;23.304;2022-12-18T08:56:23;96415.75;;;5.49;100.00
5500;BME280;2772;42.700;23.304;2022-12-18T08:58:51;96417.78;;;5.42;100.00
5500;BME280;2772;42.700;23.304;2022-12-18T09:01:19;96415.38;;;5.24;100.00
5500;BME280;2772;42.700;23.304;2022-12-18T09:03:47;96415.38;;;5.24;100.00
5500;BME280;2772;42.700;23.304;2022-12-18T09:06:20;96413.91;;;5.33;100.00
5500;BME280;2772;42.700;23.304;2022-12-18T09:08:47;96411.28;;;5.33;100.00
5500;BME280;2772;42.700;23.304;2022-12-18T09:11:20;96425.13;;;5.40;100.00
5500;BME280;2772;42.700;23.304;2022-12-18T09:13:47;96415.91;;;5.42;100.00
5500;BME280;2772;42.700;23.304;2022-12-18T09:16:14;96411.19;;;5.44;100.00
5500;BME280;2772;42.700;23.304;2022-12-18T09:18:40;96417.44;;;5.38;100.00
5500;BME280;2772;42.700;23.304;2022-12-18T09:21:15;96412.31;;;5.32;100.00
5500;BME280;2772;42.700;23.304;2022-12-18T09:23:48;96411.53;;;5.31;100.00
5500;BME280;2772;42.700;23.304;2022-12-18T09:26:15;96414.56;;;5.40;100.00
5500;BME280;2772;42.700;23.304;2022-12-18T09:28:42;96411.97;;;5.61;100.00
5500;BME280;2772;42.700;23.304;2022-12-18T09:31:11;96410.47;;;5.82;100.00
5500;BME280;2772;42.700;23.304;2022-12-18T09:33:38;96412.84;;;5.83;100.00
5500;BME280;2772;42.700;23.304;2022-12-18T09:36:07;96402.53;;;6.03;100.00
5500;BME280;2772;42.700;23.304;2022-12-18T09:38:36;96400.47;;;6.05;100.00
5500;BME280;2772;42.700;23.304;2022-12-18T09:41:05;96418.78;;;6.12;100.00
5500;BME280;2772;42.700;23.304;2022-12-18T09:43:37;96412.25;;;5.98;100.00
5500;BME280;2772;42.700;23.304;2022-12-18T09:46:10;96424.75;;;6.02;100.00
5500;BME280;2772;42.700;23.304;2022-12-18T09:48:43;96419.47;;;6.02;100.00
5500;BME280;2772;42.700;23.304;2022-12-18T09:51:15;96428.13;;;5.81;100.00
5500;BME280;2772;42.700;23.304;2022-12-18T09:53:50;96422.75;;;5.76;100.00
5500;BME280;2772;42.700;23.304;2022-12-18T09:56:20;96417.31;;;5.83;100.00
5500;BME280;2772;42.700;23.304;2022-12-18T09:58:53;96414.69;;;5.83;100.00
5500;BME280;2772;42.700;23.304;2022-12-18T10:01:23;96411.13;;;5.94;100.00
5500;BME280;2772;42.700;23.304;2022-12-18T10:03:54;96417.72;;;6.13;100.00
5500;BME280;2772;42.700;23.304;2022-12-18T10:06:25;96404.75;;;6.33;100.00
5500;BME280;2772;42.700;23.304;2022-12-18T10:09:03;96419.03;;;6.32;100.00
5500;BME280;2772;42.700;23.304;2022-12-18T10:11:41;96423.66;;;6.41;100.00
5500;BME280;2772;42.700;23.304;2022-12-18T10:14:16;96414.78;;;6.31;100.00
5500;BME280;2772;42.700;23.304;2022-12-18T10:16:55;96405.59;;;6.17;100.00
5500;BME280;2772;42.700;23.304;2022-12-18T10:19:47;96417.91;;;6.28;100.00
5500;BME280;2772;42.700;23.304;2022-12-18T10:22:25;96432.03;;;6.38;100.00
5500;BME280;2772;42.700;23.304;2022-12-18T10:25:01;96422.22;;;6.34;100.00
5500;BME280;2772;42.700;23.304;2022-12-18T10:27:32;96431.03;;;6.39;100.00
5500;BME280;2772;42.700;23.304;2022-12-18T10:30:01;96425.47;;;6.41;100.00
5500;BME280;2772;42.700;23.304;2022-12-18T10:32:29;96434.16;;;6.36;100.00
5500;BME280;2772;42.700;23.304;2022-12-18T10:34:57;96423.81;;;6.35;100.00
5500;BME280;2772;42.700;23.304;2022-12-18T10:37:26;96415.88;;;6.35;100.00
5500;BME280;2772;42.700;23.304;2022-12-18T10:40:08;96427.94;;;6.47;100.00
5500;BME280;2772;42.700;23.304;2022-12-18T10:42:37;96420.09;;;6.58;100.00
5500;BME280;2772;42.700;23.304;2022-12-18T10:45:09;96422.22;;;6.56;100.00
5500;BME280;2772;42.700;23.304;2022-12-18T10:47:45;96412.06;;;6.47;100.00
5500;BME280;2772;42.700;23.304;2022-12-18T10:50:22;96409.94;;;6.49;100.00
5500;BME280;2772;42.700;23.304;2022-12-18T10:52:55;96415.75;;;6.46;100.00
5500;BME280;2772;42.700;23.304;2022-12-18T10:55:27;96422.03;;;6.40;100.00
5500;BME280;2772;42.700;23.304;2022-12-18T10:58:13;96410.38;;;6.63;100.00
5500;BME280;2772;42.700;23.304;2022-12-18T11:00:42;96415.22;;;6.71;100.00
5500;BME280;2772;42.700;23.304;2022-12-18T11:03:29;96410.19;;;6.70;100.00
5500;BME280;2772;42.700;23.304;2022-12-18T11:06:05;96412.28;;;6.94;100.00
5500;BME280;2772;42.700;23.304;2022-12-18T11:08:32;96415.38;;;6.86;100.00
5500;BME280;2772;42.700;23.304;2022-12-18T11:11:00;96431.81;;;6.88;100.00
5500;BME280;2772;42.700;23.304;2022-12-18T11:13:29;96406.63;;;6.86;100.00
5500;BME280;2772;42.700;23.304;2022-12-18T11:15:57;96421.97;;;6.84;100.00
5500;BME280;2772;42.700;23.304;2022-12-18T11:18:26;96417.41;;;6.79;100.00
5500;BME280;2772;42.700;23.304;2022-12-18T11:20:58;96421.50;;;6.65;100.00
5500;BME280;2772;42.700;23.304;2022-12-18T11:23:26;96433.88;;;6.60;100.00
5500;BME280;2772;42.700;23.304;2022-12-18T11:25:56;96411.88;;;6.54;100.00
5500;BME280;2772;42.700;23.304;2022-12-18T11:28:35;96435.19;;;6.57;100.00
5500;BME280;2772;42.700;23.304;2022-12-18T11:31:18;96418.38;;;6.46;100.00
5500;BME280;2772;42.700;23.304;2022-12-18T11:33:50;96427.44;;;6.51;100.00
5500;BME280;2772;42.700;23.304;2022-12-18T11:36:18;96419.06;;;6.59;100.00
5500;BME280;2772;42.700;23.304;2022-12-18T11:38:47;96410.31;;;6.58;100.00
5500;BME280;2772;42.700;23.304;2022-12-18T11:41:21;96424.97;;;6.44;100.00
5500;BME280;2772;42.700;23.304;2022-12-18T11:44:16;96424.97;;;6.44;100.00
5500;BME280;2772;42.700;23.304;2022-12-18T11:46:49;96436.56;;;6.38;100.00
5500;BME280;2772;42.700;23.304;2022-12-18T11:49:22;96434.94;;;6.37;100.00
5500;BME280;2772;42.700;23.304;2022-12-18T11:51:55;96416.00;;;6.45;100.00
5500;BME280;2772;42.700;23.304;2022-12-18T11:54:25;96432.06;;;6.60;100.00
5500;BME280;2772;42.700;23.304;2022-12-18T11:56:56;96424.25;;;6.48;100.00
5500;BME280;2772;42.700;23.304;2022-12-18T11:59:33;96424.56;;;6.52;100.00
5500;BME280;2772;42.700;23.304;2022-12-18T12:02:19;96417.63;;;6.51;100.00
5500;BME280;2772;42.700;23.304;2022-12-18T12:05:04;96413.78;;;6.59;100.00
5500;BME280;2772;42.700;23.304;2022-12-18T12:07:43;96427.44;;;6.51;100.00
5500;BME280;2772;42.700;23.304;2022-12-18T12:10:27;96424.09;;;6.38;100.00
5500;BME280;2772;42.700;23.304;2022-12-18T12:13:09;96416.78;;;6.45;100.00
5500;BME280;2772;42.700;23.304;2022-12-18T12:15:46;96412.28;;;6.68;100.00
5500;BME280;2772;42.700;23.304;2022-12-18T12:18:27;96411.38;;;6.57;100.00
5500;BME280;2772;42.700;23.304;2022-12-18T12:21:03;96424.13;;;6.60;100.00
5500;BME280;2772;42.700;23.304;2022-12-18T12:23:39;96424.25;;;6.48;100.00
5500;BME280;2772;42.700;23.304;2022-12-18T12:26:11;96416.88;;;6.51;100.00
5500;BME280;2772;42.700;23.304;2022-12-18T12:28:59;96411.88;;;6.54;100.00
5500;BME280;2772;42.700;23.304;2022-12-18T12:31:41;96421.47;;;6.60;100.00
5500;BME280;2772;42.700;23.304;2022-12-18T12:34:17;96428.97;;;6.68;100.00
5500;BME280;2772;42.700;23.304;2022-12-18T12:36:54;96427.97;;;6.74;100.00
5500;BME280;2772;42.700;23.304;2022-12-18T12:39:31;96419.78;;;6.76;100.00
5500;BME280;2772;42.700;23.304;2022-12-18T12:42:01;96435.28;;;6.67;100.00
5500;BME280;2772;42.700;23.304;2022-12-18T12:44:49;96419.59;;;6.87;100.00
5500;BME280;2772;42.700;23.304;2022-12-18T12:47:25;96427.50;;;6.56;100.00
5500;BME280;2772;42.700;23.304;2022-12-18T12:49:55;96428.47;;;6.71;100.00
5500;BME280;2772;42.700;23.304;2022-12-18T12:52:30;96432.84;;;6.61;100.00
5500;BME280;2772;42.700;23.304;2022-12-18T12:55:00;96443.53;;;6.71;100.00
5500;BME280;2772;42.700;23.304;2022-12-18T12:57:34;96427.13;;;6.47;100.00
5500;BME280;2772;42.700;23.304;2022-12-18T13:00:07;96426.19;;;6.58;100.00
5500;BME280;2772;42.700;23.304;2022-12-18T13:02:42;96438.03;;;6.51;100.00
5500;BME280;2772;42.700;23.304;2022-12-18T13:05:18;96444.00;;;6.41;100.00
5500;BME280;2772;42.700;23.304;2022-12-18T13:07:52;96443.63;;;6.32;100.00
5500;BME280;2772;42.700;23.304;2022-12-18T13:10:28;96447.69;;;6.40;100.00
5500;BME280;2772;42.700;23.304;2022-12-18T13:12:58;96453.34;;;6.48;100.00
5500;BME280;2772;42.700;23.304;2022-12-18T13:15:30;96467.56;;;6.42;100.00
5500;BME280;2772;42.700;23.304;2022-12-18T13:18:10;96461.16;;;6.38;100.00
5500;BME280;2772;42.700;23.304;2022-12-18T13:20:42;96459.38;;;6.44;100.00
5500;BME280;2772;42.700;23.304;2022-12-18T13:23:35;96471.44;;;6.35;100.00
5500;BME280;2772;42.700;23.304;2022-12-18T13:26:29;96472.34;;;6.24;100.00
5500;BME280;2772;42.700;23.304;2022-12-18T13:28:58;96468.00;;;6.34;100.00